createdAt,value
2023-04-03T00:00:10.984Z,6.5241
2023-04-03T00:01:12.689Z,6.5303
2023-04-03T00:02:14.538Z,6.5488
2023-04-03T00:03:16.354Z,6.5074
2023-04-03T00:04:18.089Z,6.4955
2023-04-03T00:05:19.955Z,6.4785
2023-04-03T00:06:21.620Z,6.4533
2023-04-03T00:07:23.313Z,6.4424
2023-04-03T00:08:25.028Z,6.4201
2023-04-03T00:09:26.699Z,6.4197
2023-04-03T00:10:28.525Z,6.4143
2023-04-03T00:11:30.181Z,6.4078
2023-04-03T00:12:31.871Z,6.3686
2023-04-03T00:13:33.524Z,6.3918
2023-04-03T00:14:35.249Z,6.4066
2023-04-03T00:15:36.988Z,6.4137
2023-04-03T00:16:38.705Z,6.3561
2023-04-03T00:17:40.430Z,6.3387
2023-04-03T00:18:42.099Z,6.3386
2023-04-03T00:19:43.808Z,6.3282
2023-04-03T00:20:45.531Z,6.3765
2023-04-03T00:21:47.256Z,6.3918
2023-04-03T00:22:49.150Z,6.3300
2023-04-03T00:23:50.838Z,6.3459
2023-04-03T00:24:52.627Z,6.3797
2023-04-03T00:25:54.398Z,6.3551
2023-04-03T00:26:56.166Z,6.3646
2023-04-03T00:27:57.900Z,6.3159
2023-04-03T00:28:59.637Z,6.2977
2023-04-03T00:30:01.323Z,6.2947
2023-04-03T00:31:03.109Z,6.2818
2023-04-03T00:32:04.802Z,6.2296
2023-04-03T00:33:06.548Z,6.1980
2023-04-03T00:34:08.348Z,6.1982
2023-04-03T00:35:10.036Z,6.2174
2023-04-03T00:36:11.849Z,6.2732
2023-04-03T00:37:13.528Z,6.2335
2023-04-03T00:38:15.272Z,6.1649
2023-04-03T00:39:16.994Z,6.2436
2023-04-03T00:40:18.702Z,6.1910
2023-04-03T00:41:20.481Z,6.2087
2023-04-03T00:42:22.190Z,6.2058
2023-04-03T00:43:23.860Z,6.1977
2023-04-03T00:44:25.577Z,6.0754
2023-04-03T00:45:27.403Z,6.1196
2023-04-03T00:46:29.161Z,6.0538
2023-04-03T00:47:30.909Z,6.0493
2023-04-03T00:48:32.633Z,6.0175
2023-04-03T00:49:34.343Z,6.0659
2023-04-03T00:50:36.468Z,6.0111
2023-04-03T00:51:38.327Z,6.0015
2023-04-03T00:52:39.563Z,6.0094
2023-04-03T00:53:42.935Z,5.9308
2023-04-03T00:54:44.622Z,5.8655
2023-04-03T00:55:46.283Z,5.8662
2023-04-03T00:56:47.996Z,5.9669
2023-04-03T00:57:49.719Z,5.8788
2023-04-03T00:58:51.488Z,5.7877
2023-04-03T00:59:53.145Z,5.7450
2023-04-03T01:00:54.931Z,5.7679
2023-04-03T01:01:56.675Z,5.7422
2023-04-03T01:02:58.546Z,5.7070
2023-04-03T01:04:00.237Z,5.6607
2023-04-03T01:05:01.976Z,5.6585
2023-04-03T01:06:03.724Z,5.5771
2023-04-03T01:07:05.467Z,5.5816
2023-04-03T01:08:07.147Z,5.4842
2023-04-03T01:09:08.914Z,5.4514
2023-04-03T01:10:10.608Z,5.4342
2023-04-03T01:11:12.343Z,5.3925
2023-04-03T01:12:14.121Z,5.4026
2023-04-03T01:13:15.827Z,5.3793
2023-04-03T01:14:17.520Z,5.3605
2023-04-03T01:15:19.279Z,5.4313
2023-04-03T01:16:21.127Z,5.3604
2023-04-03T01:17:22.856Z,5.3550
2023-04-03T01:18:24.605Z,5.3832
2023-04-03T01:19:26.292Z,5.3802
2023-04-03T01:20:28.103Z,5.3572
2023-04-03T01:21:29.827Z,5.3445
2023-04-03T01:22:31.543Z,5.2758
2023-04-03T01:23:33.321Z,5.2415
2023-04-03T01:24:35.046Z,5.2292
2023-04-03T01:25:36.763Z,5.1841
2023-04-03T01:26:38.721Z,5.1638
2023-04-03T01:27:40.356Z,5.1933
2023-04-03T01:28:42.125Z,5.1800
2023-04-03T01:29:43.888Z,5.1249
2023-04-03T01:30:45.589Z,5.0947
2023-04-03T01:31:47.363Z,5.1026
2023-04-03T01:32:49.145Z,5.1273
2023-04-03T01:33:50.828Z,5.1040
2023-04-03T01:34:52.518Z,5.0937
2023-04-03T01:35:54.305Z,5.1291
2023-04-03T01:36:56.090Z,5.1428
2023-04-03T01:37:57.809Z,5.0561
2023-04-03T01:38:59.497Z,5.0320
2023-04-03T01:40:01.220Z,5.0955
2023-04-03T01:41:02.908Z,5.1225
2023-04-03T01:42:04.661Z,5.0372
2023-04-03T01:43:06.431Z,4.9349
2023-04-03T01:44:08.150Z,5.0112
2023-04-03T01:45:09.926Z,5.0043
2023-04-03T01:46:11.903Z,5.0050
2023-04-03T01:47:14.001Z,5.0001
2023-04-03T01:48:15.747Z,5.0157
2023-04-03T01:49:17.509Z,4.9883
2023-04-03T01:50:19.219Z,4.9412
2023-04-03T01:51:20.992Z,4.9641
2023-04-03T01:52:22.763Z,4.9674
2023-04-03T01:53:24.564Z,4.9526
2023-04-03T01:54:26.296Z,4.9401
2023-04-03T01:55:28.044Z,4.9262
2023-04-03T01:56:29.786Z,4.9464
2023-04-03T01:57:31.693Z,4.9198
2023-04-03T01:58:33.524Z,4.8338
2023-04-03T01:59:35.322Z,4.8836
2023-04-03T02:00:37.457Z,4.8723
2023-04-03T02:01:37.371Z,4.8355
2023-04-03T02:02:39.580Z,4.8304
2023-04-03T02:03:41.379Z,4.8304
2023-04-03T02:04:43.197Z,4.8197
2023-04-03T02:05:44.973Z,4.7582
2023-04-03T02:06:46.770Z,4.7761
2023-04-03T02:07:48.627Z,4.6866
2023-04-03T02:08:50.399Z,4.7007
2023-04-03T02:09:52.266Z,4.7570
2023-04-03T02:10:54.066Z,4.7207
2023-04-03T02:11:55.902Z,4.6351
2023-04-03T02:12:57.661Z,4.6368
2023-04-03T02:13:59.498Z,4.6381
2023-04-03T02:15:01.238Z,4.5835
2023-04-03T02:16:03.036Z,4.6031
2023-04-03T02:17:04.839Z,4.6189
2023-04-03T02:18:07.618Z,4.6385
2023-04-03T02:19:07.259Z,4.5530
2023-04-03T02:20:09.029Z,4.5144
2023-04-03T02:21:10.821Z,4.5527
2023-04-03T02:22:12.671Z,4.4697
2023-04-03T02:23:14.463Z,4.4179
2023-04-03T02:24:16.218Z,4.4324
2023-04-03T02:25:17.998Z,4.4843
2023-04-03T02:26:19.737Z,4.4341
2023-04-03T02:27:21.525Z,4.4045
2023-04-03T02:28:23.272Z,4.4259
2023-04-03T02:29:25.127Z,4.4665
2023-04-03T02:30:26.899Z,4.4746
2023-04-03T02:31:28.728Z,4.5000
2023-04-03T02:32:30.546Z,4.5430
2023-04-03T02:33:32.286Z,4.5208
2023-04-03T02:34:34.042Z,4.5058
2023-04-03T02:35:35.836Z,4.4863
2023-04-03T02:36:37.570Z,4.4388
2023-04-03T02:37:39.343Z,4.4426
2023-04-03T02:38:41.117Z,4.4281
2023-04-03T02:39:42.938Z,4.4497
2023-04-03T02:40:44.677Z,4.4392
2023-04-03T02:41:46.529Z,4.4465
2023-04-03T02:42:48.289Z,4.4083
2023-04-03T02:43:50.032Z,4.3840
2023-04-03T02:44:51.800Z,4.3430
2023-04-03T02:45:53.235Z,4.3606
2023-04-03T02:46:53.587Z,4.3327
2023-04-03T02:47:55.442Z,4.3367
2023-04-03T02:48:57.270Z,4.4078
2023-04-03T02:49:59.132Z,4.3952
2023-04-03T02:51:00.905Z,4.3393
2023-04-03T02:52:02.768Z,4.3346
2023-04-03T02:53:04.597Z,4.3455
2023-04-03T02:54:06.290Z,4.2756
2023-04-03T02:55:08.053Z,4.2858
2023-04-03T02:56:09.801Z,4.2489
2023-04-03T02:57:11.658Z,4.1442
2023-04-03T02:58:13.721Z,4.0670
2023-04-03T02:59:15.514Z,4.0664
2023-04-03T03:00:17.283Z,4.1206
2023-04-03T03:01:19.026Z,4.0945
2023-04-03T03:02:20.834Z,4.0450
2023-04-03T03:03:22.617Z,4.0896
2023-04-03T03:04:24.420Z,4.0883
2023-04-03T03:05:26.161Z,4.0656
2023-04-03T03:06:28.026Z,4.0490
2023-04-03T03:07:29.841Z,4.0738
2023-04-03T03:08:31.670Z,4.0758
2023-04-03T03:09:33.429Z,4.0002
2023-04-03T03:10:35.399Z,4.0477
2023-04-03T03:11:37.578Z,4.0232
2023-04-03T03:12:39.320Z,4.0591
2023-04-03T03:13:41.094Z,4.0296
2023-04-03T03:14:42.849Z,4.0127
2023-04-03T03:15:44.641Z,4.0701
2023-04-03T03:16:46.362Z,4.0201
2023-04-03T03:17:48.168Z,4.0237
2023-04-03T03:18:49.965Z,4.0231
2023-04-03T03:19:51.724Z,4.0512
2023-04-03T03:20:53.461Z,4.1172
2023-04-03T03:21:55.238Z,4.1435
2023-04-03T03:22:56.999Z,4.1861
2023-04-03T03:23:58.796Z,4.1708
2023-04-03T03:25:00.540Z,4.1693
2023-04-03T03:26:02.349Z,4.1326
2023-04-03T03:27:04.163Z,4.1160
2023-04-03T03:28:05.890Z,4.0774
2023-04-03T03:29:07.725Z,4.0528
2023-04-03T03:30:09.466Z,4.0367
2023-04-03T03:31:11.381Z,4.1323
2023-04-03T03:32:13.152Z,4.1049
2023-04-03T03:33:14.926Z,4.0915
2023-04-03T03:34:16.658Z,4.0510
2023-04-03T03:35:18.416Z,4.0407
2023-04-03T03:36:20.224Z,4.0552
2023-04-03T03:37:22.005Z,4.0515
2023-04-03T03:38:23.865Z,3.9943
2023-04-03T03:39:25.653Z,4.0387
2023-04-03T03:40:27.478Z,4.0695
2023-04-03T03:41:29.249Z,4.0735
2023-04-03T03:42:31.000Z,4.1122
2023-04-03T03:43:32.844Z,4.0186
2023-04-03T03:44:34.546Z,3.9958
2023-04-03T03:45:36.575Z,4.0642
2023-04-03T03:46:38.648Z,4.0861
2023-04-03T03:47:40.440Z,4.1036
2023-04-03T03:48:42.329Z,4.1506
2023-04-03T03:49:44.147Z,4.0335
2023-04-03T03:50:45.866Z,3.9341
2023-04-03T03:51:47.651Z,3.9197
2023-04-03T03:52:49.429Z,3.8918
2023-04-03T03:53:51.273Z,3.9058
2023-04-03T03:54:53.101Z,3.9223
2023-04-03T03:55:54.847Z,3.9620
2023-04-03T03:56:56.627Z,3.9422
2023-04-03T03:57:58.429Z,3.8922
2023-04-03T03:59:00.241Z,3.8164
2023-04-03T04:00:02.035Z,3.8693
2023-04-03T04:01:03.850Z,3.8716
2023-04-03T04:02:05.755Z,3.8682
2023-04-03T04:03:07.720Z,3.9259
2023-04-03T04:04:09.615Z,3.8821
2023-04-03T04:05:11.316Z,3.8538
2023-04-03T04:06:13.170Z,3.8860
2023-04-03T04:07:14.942Z,3.8866
2023-04-03T04:08:16.695Z,3.8465
2023-04-03T04:09:18.479Z,3.8318
2023-04-03T04:10:20.250Z,3.7178
2023-04-03T04:11:22.008Z,3.7296
2023-04-03T04:12:23.893Z,3.7353
2023-04-03T04:13:25.645Z,3.7709
2023-04-03T04:14:27.491Z,3.7538
2023-04-03T04:15:29.294Z,3.7362
2023-04-03T04:16:31.136Z,3.7521
2023-04-03T04:17:33.087Z,3.7514
2023-04-03T04:18:34.880Z,3.7751
2023-04-03T04:19:36.716Z,3.7738
2023-04-03T04:20:38.517Z,3.7724
2023-04-03T04:21:40.435Z,3.7165
2023-04-03T04:22:42.213Z,3.7448
2023-04-03T04:23:44.094Z,3.7230
2023-04-03T04:24:45.877Z,3.7603
2023-04-03T04:25:47.658Z,3.7549
2023-04-03T04:26:49.506Z,3.7011
2023-04-03T04:27:51.272Z,3.6753
2023-04-03T04:28:53.054Z,3.6820
2023-04-03T04:29:54.901Z,3.6712
2023-04-03T04:30:56.738Z,3.6768
2023-04-03T04:31:58.473Z,3.6726
2023-04-03T04:33:00.316Z,3.6610
2023-04-03T04:34:02.124Z,3.6432
2023-04-03T04:35:03.943Z,3.6597
2023-04-03T04:36:05.783Z,3.6983
2023-04-03T04:37:07.630Z,3.7088
2023-04-03T04:38:09.664Z,3.6074
2023-04-03T04:39:11.444Z,3.6445
2023-04-03T04:40:13.313Z,3.7445
2023-04-03T04:41:15.194Z,3.7650
2023-04-03T04:42:17.939Z,3.7194
2023-04-03T04:43:17.587Z,3.7613
2023-04-03T04:44:19.391Z,3.7437
2023-04-03T04:45:21.223Z,3.7672
2023-04-03T04:46:23.099Z,3.7599
2023-04-03T04:47:24.955Z,3.7305
2023-04-03T04:48:26.712Z,3.7377
2023-04-03T04:49:28.549Z,3.7523
2023-04-03T04:50:30.414Z,3.6892
2023-04-03T04:51:40.996Z,3.6627
2023-04-03T04:52:32.581Z,3.6524
2023-04-03T04:53:34.655Z,3.6379
2023-04-03T04:54:36.473Z,3.6224
2023-04-03T04:55:38.596Z,3.6592
2023-04-03T04:56:38.292Z,3.6100
2023-04-03T04:57:40.168Z,3.6140
2023-04-03T04:58:42.307Z,3.5874
2023-04-03T04:59:44.106Z,3.5617
2023-04-03T05:00:46.038Z,3.5373
2023-04-03T05:01:47.826Z,3.5830
2023-04-03T05:02:49.737Z,3.5847
2023-04-03T05:03:51.610Z,3.5656
2023-04-03T05:04:53.442Z,3.5852
2023-04-03T05:05:55.298Z,3.5776
2023-04-03T05:06:57.002Z,3.6191
2023-04-03T05:07:58.812Z,3.5501
2023-04-03T05:09:00.581Z,3.5483
2023-04-03T05:10:02.395Z,3.4824
2023-04-03T05:11:04.149Z,3.4242
2023-04-03T05:12:05.939Z,3.4290
2023-04-03T05:13:07.756Z,3.4240
2023-04-03T05:14:09.552Z,3.4350
2023-04-03T05:15:11.366Z,3.4440
2023-04-03T05:16:13.136Z,3.4645
2023-04-03T05:17:14.930Z,3.4976
2023-04-03T05:18:16.779Z,3.5572
2023-04-03T05:19:18.562Z,3.4763
2023-04-03T05:20:20.389Z,3.4860
2023-04-03T05:21:22.200Z,3.4672
2023-04-03T05:22:23.987Z,3.4347
2023-04-03T05:23:25.752Z,3.3992
2023-04-03T05:24:27.551Z,3.4213
2023-04-03T05:25:29.323Z,3.3637
2023-04-03T05:26:31.122Z,3.3395
2023-04-03T05:27:32.930Z,3.3258
2023-04-03T05:28:34.691Z,3.3230
2023-04-03T05:29:36.437Z,3.3589
2023-04-03T05:30:38.347Z,3.3078
2023-04-03T05:31:40.211Z,3.2960
2023-04-03T05:32:42.028Z,3.3010
2023-04-03T05:33:43.810Z,3.3289
2023-04-03T05:34:45.621Z,3.3260
2023-04-03T05:35:47.480Z,3.3375
2023-04-03T05:36:49.414Z,3.3919
2023-04-03T05:37:51.413Z,3.2999
2023-04-03T05:38:53.249Z,3.3756
2023-04-03T05:39:55.277Z,3.4107
2023-04-03T05:40:57.054Z,3.3487
2023-04-03T05:41:58.845Z,3.3671
2023-04-03T05:43:00.694Z,3.3918
2023-04-03T05:44:02.436Z,3.3610
2023-04-03T05:45:04.256Z,3.3521
2023-04-03T05:46:06.163Z,3.3663
2023-04-03T05:47:07.945Z,3.3375
2023-04-03T05:48:09.751Z,3.3222
2023-04-03T05:49:11.514Z,3.3170
2023-04-03T05:50:13.310Z,3.3414
2023-04-03T05:51:15.142Z,3.3587
2023-04-03T05:52:16.908Z,3.3106
2023-04-03T05:53:18.735Z,3.3498
2023-04-03T05:54:20.473Z,3.3348
2023-04-03T05:55:22.294Z,3.3544
2023-04-03T05:56:24.117Z,3.3236
2023-04-03T05:57:25.903Z,3.3836
2023-04-03T05:58:27.714Z,3.2942
2023-04-03T05:59:29.572Z,3.2647
2023-04-03T06:00:31.353Z,3.3453
2023-04-03T06:01:33.145Z,3.3821
2023-04-03T06:02:34.943Z,3.4710
2023-04-03T06:03:38.798Z,3.5133
2023-04-03T06:04:37.208Z,3.4571
2023-04-03T06:05:39.377Z,3.5585
2023-04-03T06:06:41.377Z,3.5098
2023-04-03T06:07:43.218Z,3.5219
2023-04-03T06:08:44.977Z,3.3170
2023-04-03T06:09:46.808Z,3.3002
2023-04-03T06:10:48.498Z,3.2948
2023-04-03T06:11:50.419Z,3.3443
2023-04-03T06:12:52.221Z,3.3490
2023-04-03T06:13:54.020Z,3.2616
2023-04-03T06:14:55.783Z,3.1374
2023-04-03T06:15:57.584Z,3.1425
2023-04-03T06:16:59.393Z,3.0983
2023-04-03T06:18:01.194Z,3.1801
2023-04-03T06:19:02.983Z,3.1617
2023-04-03T06:20:04.742Z,3.0489
2023-04-03T06:21:06.570Z,3.0698
2023-04-03T06:22:08.393Z,3.0869
2023-04-03T06:23:10.148Z,3.1170
2023-04-03T06:24:11.912Z,3.0995
2023-04-03T06:25:13.687Z,3.0709
2023-04-03T06:26:15.473Z,3.0850
2023-04-03T06:27:17.271Z,3.0435
2023-04-03T06:28:19.082Z,3.0739
2023-04-03T06:29:20.946Z,3.1613
2023-04-03T06:30:22.799Z,3.1786
2023-04-03T06:31:24.728Z,3.2176
2023-04-03T06:32:26.600Z,3.2223
2023-04-03T06:33:28.458Z,3.2479
2023-04-03T06:34:30.330Z,3.1881
2023-04-03T06:35:32.204Z,3.2699
2023-04-03T06:36:33.984Z,3.2522
2023-04-03T06:37:35.838Z,3.1657
2023-04-03T06:38:37.652Z,3.2558
2023-04-03T06:39:39.472Z,3.3190
2023-04-03T06:40:41.337Z,3.3082
2023-04-03T06:41:43.191Z,3.3205
2023-04-03T06:42:45.013Z,3.3336
2023-04-03T06:43:46.860Z,3.3483
2023-04-03T06:44:48.704Z,3.3464
2023-04-03T06:45:50.508Z,3.4324
2023-04-03T06:46:52.407Z,3.4658
2023-04-03T06:47:54.249Z,3.3701
2023-04-03T06:48:56.067Z,3.3719
2023-04-03T06:49:57.881Z,3.3943
2023-04-03T06:50:59.740Z,3.4284
2023-04-03T06:52:02.665Z,3.5557
2023-04-03T06:53:02.341Z,3.5614
2023-04-03T06:54:04.191Z,3.5002
2023-04-03T06:55:06.188Z,3.5505
2023-04-03T06:56:07.990Z,3.5392
2023-04-03T06:57:09.796Z,3.4868
2023-04-03T06:58:11.632Z,3.6045
2023-04-03T06:59:13.460Z,3.5808
2023-04-03T07:00:15.321Z,3.5668
2023-04-03T07:01:17.216Z,3.5988
2023-04-03T07:02:19.036Z,3.5993
2023-04-03T07:03:21.032Z,3.6187
2023-04-03T07:04:22.872Z,3.6534
2023-04-03T07:05:24.685Z,3.6025
2023-04-03T07:06:26.494Z,3.7137
2023-04-03T07:07:28.347Z,3.7075
2023-04-03T07:08:30.146Z,3.7485
2023-04-03T07:09:31.986Z,3.6849
2023-04-03T07:10:33.820Z,3.7213
2023-04-03T07:11:35.621Z,3.7807
2023-04-03T07:12:37.449Z,3.8107
2023-04-03T07:13:39.251Z,3.6783
2023-04-03T07:14:41.056Z,3.5845
2023-04-03T07:15:42.888Z,3.7211
2023-04-03T07:16:44.709Z,3.7945
2023-04-03T07:17:46.554Z,3.7676
2023-04-03T07:18:48.387Z,3.7916
2023-04-03T07:19:50.210Z,3.7626
2023-04-03T07:20:52.044Z,3.7623
2023-04-03T07:21:53.883Z,3.7331
2023-04-03T07:22:55.710Z,3.7492
2023-04-03T07:23:57.532Z,3.7841
2023-04-03T07:24:59.373Z,3.7633
2023-04-03T07:26:01.214Z,3.8693
2023-04-03T07:27:03.030Z,3.9461
2023-04-03T07:28:04.903Z,3.8233
2023-04-03T07:29:06.763Z,3.8880
2023-04-03T07:30:08.581Z,3.8304
2023-04-03T07:31:10.461Z,3.8188
2023-04-03T07:32:12.290Z,3.8271
2023-04-03T07:33:14.126Z,3.8084
2023-04-03T07:34:15.934Z,3.7566
2023-04-03T07:35:17.748Z,3.7885
2023-04-03T07:36:19.578Z,3.7886
2023-04-03T07:37:21.409Z,3.8343
2023-04-03T07:38:23.233Z,3.8995
2023-04-03T07:39:25.116Z,3.7770
2023-04-03T07:40:26.963Z,3.7446
2023-04-03T07:41:28.800Z,3.7917
2023-04-03T07:42:30.645Z,3.8097
2023-04-03T07:43:32.436Z,3.8771
2023-04-03T07:44:34.256Z,3.9652
2023-04-03T07:45:36.235Z,3.9771
2023-04-03T07:46:38.263Z,4.0333
2023-04-03T07:47:40.184Z,4.0057
2023-04-03T07:48:42.000Z,4.1991
2023-04-03T07:49:43.785Z,4.2661
2023-04-03T07:50:45.594Z,4.3165
2023-04-03T07:51:47.380Z,4.3346
2023-04-03T07:52:49.226Z,4.2134
2023-04-03T07:53:51.055Z,4.2322
2023-04-03T07:54:52.859Z,4.2998
2023-04-03T07:55:54.675Z,4.3357
2023-04-03T07:56:56.570Z,4.4316
2023-04-03T07:57:58.458Z,4.3628
2023-04-03T07:59:00.344Z,4.4236
2023-04-03T08:00:02.173Z,4.4164
2023-04-03T08:01:03.985Z,4.4466
2023-04-03T08:02:05.808Z,4.5023
2023-04-03T08:03:09.597Z,4.5577
2023-04-03T08:04:09.929Z,4.6804
2023-04-03T08:05:11.728Z,4.4634
2023-04-03T08:06:16.516Z,4.4816
2023-04-03T08:07:14.604Z,4.4298
2023-04-03T08:08:16.727Z,4.4814
2023-04-03T08:09:18.851Z,4.4726
2023-04-03T08:10:20.802Z,4.3619
2023-04-03T08:11:22.594Z,4.4573
2023-04-03T08:12:24.441Z,4.3758
2023-04-03T08:13:26.264Z,4.2902
2023-04-03T08:14:28.103Z,4.3552
2023-04-03T08:15:29.886Z,4.4790
2023-04-03T08:16:31.800Z,4.4618
2023-04-03T08:17:33.727Z,4.5441
2023-04-03T08:18:35.567Z,4.6448
2023-04-03T08:19:37.304Z,4.6223
2023-04-03T08:20:39.161Z,4.5411
2023-04-03T08:21:41.062Z,4.8082
2023-04-03T08:22:42.864Z,4.8308
2023-04-03T08:23:44.701Z,4.7976
2023-04-03T08:24:58.279Z,4.9232
2023-04-03T08:25:46.875Z,4.9549
2023-04-03T08:26:48.671Z,4.8152
2023-04-03T08:27:50.496Z,4.7847
2023-04-03T08:28:52.340Z,4.7693
2023-04-03T08:29:54.145Z,4.7682
2023-04-03T08:30:56.033Z,4.9735
2023-04-03T08:31:57.866Z,4.9376
2023-04-03T08:32:59.667Z,4.9481
2023-04-03T08:34:01.487Z,4.8820
2023-04-03T08:35:03.366Z,4.7842
2023-04-03T08:36:05.178Z,4.8059
2023-04-03T08:37:06.958Z,4.8269
2023-04-03T08:38:08.735Z,4.9579
2023-04-03T08:39:10.619Z,5.0268
2023-04-03T08:40:12.423Z,4.8962
2023-04-03T08:41:14.229Z,4.9113
2023-04-03T08:42:15.981Z,4.9545
2023-04-03T08:43:17.824Z,5.0460
2023-04-03T08:44:19.600Z,5.0667
2023-04-03T08:45:21.348Z,5.1729
2023-04-03T08:46:23.243Z,5.1125
2023-04-03T08:47:25.085Z,5.0652
2023-04-03T08:48:26.904Z,5.1064
2023-04-03T08:49:28.770Z,4.9936
2023-04-03T08:50:30.561Z,4.7270
2023-04-03T08:51:32.378Z,4.7456
2023-04-03T08:52:34.128Z,4.8350
2023-04-03T08:53:35.938Z,4.8919
2023-04-03T08:54:37.771Z,4.8836
2023-04-03T08:55:39.887Z,4.9276
2023-04-03T08:56:39.623Z,5.0798
2023-04-03T08:57:41.427Z,5.0779
2023-04-03T08:58:43.245Z,4.9987
2023-04-03T08:59:45.074Z,4.9244
2023-04-03T09:00:46.896Z,4.8415
2023-04-03T09:01:48.702Z,4.9786
2023-04-03T09:02:50.485Z,4.9776
2023-04-03T09:03:52.308Z,4.9402
2023-04-03T09:04:54.085Z,5.0642
2023-04-03T09:05:55.849Z,4.8775
2023-04-03T09:06:57.660Z,4.8462
2023-04-03T09:07:59.437Z,4.9779
2023-04-03T09:09:01.283Z,4.9968
2023-04-03T09:10:03.110Z,5.0947
2023-04-03T09:11:04.927Z,5.1213
2023-04-03T09:12:06.722Z,5.1313
2023-04-03T09:13:08.524Z,5.0482
2023-04-03T09:14:10.386Z,4.9765
2023-04-03T09:15:12.226Z,4.9948
2023-04-03T09:16:14.022Z,4.9566
2023-04-03T09:17:15.803Z,4.9227
2023-04-03T09:18:17.579Z,5.0255
2023-04-03T09:19:19.393Z,5.1343
2023-04-03T09:20:21.369Z,5.2708
2023-04-03T09:21:23.192Z,5.2896
2023-04-03T09:22:25.017Z,5.4346
2023-04-03T09:23:26.784Z,5.3006
2023-04-03T09:24:28.630Z,5.2578
2023-04-03T09:25:32.081Z,5.2207
2023-04-03T09:26:31.639Z,5.2975
2023-04-03T09:27:33.476Z,5.4417
2023-04-03T09:28:39.258Z,5.3995
2023-04-03T09:29:35.639Z,5.3827
2023-04-03T09:30:37.625Z,5.3410
2023-04-03T09:31:40.116Z,5.2291
2023-04-03T09:32:40.625Z,5.2541
2023-04-03T09:33:42.341Z,5.1926
2023-04-03T09:34:44.190Z,5.3779
2023-04-03T09:35:48.615Z,5.3959
2023-04-03T09:36:46.143Z,5.4715
2023-04-03T09:37:47.891Z,5.4565
2023-04-03T09:38:49.720Z,5.4403
2023-04-03T09:39:51.517Z,5.4859
2023-04-03T09:40:53.329Z,5.5221
2023-04-03T09:41:55.111Z,5.4699
2023-04-03T09:43:01.490Z,5.4569
2023-04-03T09:43:57.250Z,5.4324
2023-04-03T09:44:59.068Z,5.4488
2023-04-03T09:46:00.856Z,5.4708
2023-04-03T09:47:02.734Z,5.3668
2023-04-03T09:48:05.563Z,5.4115
2023-04-03T09:49:09.508Z,5.4753
2023-04-03T09:50:07.073Z,5.4460
2023-04-03T09:51:08.848Z,5.5286
2023-04-03T09:52:10.655Z,5.4726
2023-04-03T09:53:12.453Z,5.5694
2023-04-03T09:54:14.300Z,5.4291
2023-04-03T09:55:16.105Z,5.5050
2023-04-03T09:56:17.883Z,5.7529
2023-04-03T09:57:19.678Z,5.8259
2023-04-03T09:58:21.425Z,5.9477
2023-04-03T09:59:23.294Z,5.7475
2023-04-03T10:00:25.050Z,5.6232
2023-04-03T10:01:26.836Z,5.5040
2023-04-03T10:02:28.623Z,5.6646
2023-04-03T10:03:31.349Z,5.7800
2023-04-03T10:04:32.270Z,5.7159
2023-04-03T10:05:34.048Z,5.7592
2023-04-03T10:06:35.838Z,5.6833
2023-04-03T10:07:37.629Z,5.6110
2023-04-03T10:08:39.424Z,5.6257
2023-04-03T10:09:41.199Z,5.6949
2023-04-03T10:10:42.983Z,5.7148
2023-04-03T10:11:44.761Z,5.6066
2023-04-03T10:12:46.550Z,5.6347
2023-04-03T10:13:51.220Z,5.4600
2023-04-03T10:14:48.404Z,5.4497
2023-04-03T10:15:50.236Z,5.4624
2023-04-03T10:16:52.080Z,5.3986
2023-04-03T10:17:53.888Z,5.2088
2023-04-03T10:18:55.661Z,5.3571
2023-04-03T10:19:57.484Z,5.4930
2023-04-03T10:20:59.253Z,5.5337
2023-04-03T10:22:01.193Z,5.6212
2023-04-03T10:23:02.996Z,5.6236
2023-04-03T10:24:04.759Z,5.6883
2023-04-03T10:25:06.632Z,5.6778
2023-04-03T10:26:08.360Z,5.6292
2023-04-03T10:27:10.165Z,5.6780
2023-04-03T10:28:11.965Z,5.6900
2023-04-03T10:29:13.749Z,5.7027
2023-04-03T10:30:15.595Z,5.8128
2023-04-03T10:31:17.476Z,5.5979
2023-04-03T10:32:19.294Z,5.3183
2023-04-03T10:33:21.083Z,5.7149
2023-04-03T10:34:22.901Z,5.8072
2023-04-03T10:35:24.664Z,5.8053
2023-04-03T10:36:26.507Z,6.0496
2023-04-03T10:37:28.268Z,6.0693
2023-04-03T10:38:30.061Z,6.1171
2023-04-03T10:39:31.839Z,6.1565
2023-04-03T10:40:33.665Z,6.0839
2023-04-03T10:41:35.441Z,6.0901
2023-04-03T10:42:37.203Z,5.9881
2023-04-03T10:43:38.980Z,5.7754
2023-04-03T10:44:40.773Z,5.9114
2023-04-03T10:45:42.612Z,6.0366
2023-04-03T10:46:44.387Z,6.0663
2023-04-03T10:47:46.179Z,6.1269
2023-04-03T10:48:47.966Z,6.1535
2023-04-03T10:49:57.017Z,6.1260
2023-04-03T10:50:50.073Z,6.1773
2023-04-03T10:51:51.881Z,5.8766
2023-04-03T10:52:53.678Z,6.0584
2023-04-03T10:53:55.470Z,5.9745
2023-04-03T10:54:57.264Z,5.8700
2023-04-03T10:55:59.097Z,5.7615
2023-04-03T10:57:11.023Z,5.5726
2023-04-03T10:58:01.218Z,5.4965
2023-04-03T10:59:02.995Z,5.3572
2023-04-03T11:00:04.784Z,5.3481
2023-04-03T11:01:06.656Z,5.4098
2023-04-03T11:02:08.536Z,5.4358
2023-04-03T11:03:10.448Z,5.5163
2023-04-03T11:04:12.341Z,5.4636
2023-04-03T11:05:14.137Z,5.4735
2023-04-03T11:06:15.983Z,5.4606
2023-04-03T11:07:17.806Z,5.4070
2023-04-03T11:08:19.730Z,5.7050
2023-04-03T11:09:21.570Z,5.8095
2023-04-03T11:10:23.446Z,5.8168
2023-04-03T11:11:25.294Z,6.0168
2023-04-03T11:12:27.125Z,6.1910
2023-04-03T11:13:28.947Z,6.1093
2023-04-03T11:14:30.796Z,5.9676
2023-04-03T11:15:32.686Z,5.7762
2023-04-03T11:16:43.370Z,5.6499
2023-04-03T11:17:34.890Z,5.7166
2023-04-03T11:18:36.654Z,5.8364
2023-04-03T11:19:38.503Z,5.8190
2023-04-03T11:20:40.375Z,5.8285
2023-04-03T11:21:42.149Z,5.7189
2023-04-03T11:22:43.989Z,5.7899
2023-04-03T11:23:49.964Z,5.8348
2023-04-03T11:24:47.089Z,5.7744
2023-04-03T11:25:48.909Z,5.8701
2023-04-03T11:26:50.736Z,5.6957
2023-04-03T11:27:52.574Z,5.8258
2023-04-03T11:28:54.408Z,5.8357
2023-04-03T11:29:56.220Z,5.8368
2023-04-03T11:30:58.293Z,5.9487
2023-04-03T11:31:58.793Z,6.1267
2023-04-03T11:33:00.745Z,6.1560
2023-04-03T11:34:02.648Z,6.2195
2023-04-03T11:35:04.461Z,6.1736
2023-04-03T11:36:15.505Z,6.0782
2023-04-03T11:37:06.796Z,6.0356
2023-04-03T11:38:08.633Z,5.8386
2023-04-03T11:39:10.438Z,5.7852
2023-04-03T11:40:12.260Z,5.6074
2023-04-03T11:41:14.068Z,5.4905
2023-04-03T11:42:15.918Z,5.5673
2023-04-03T11:43:17.705Z,5.6811
2023-04-03T11:44:19.572Z,5.6216
2023-04-03T11:45:21.383Z,5.8016
2023-04-03T11:46:23.225Z,5.8157
2023-04-03T11:47:25.115Z,5.7924
2023-04-03T11:48:26.982Z,5.8202
2023-04-03T11:49:28.767Z,5.8492
2023-04-03T11:50:30.561Z,5.9449
2023-04-03T11:51:32.446Z,5.7647
2023-04-03T11:52:34.248Z,5.8015
2023-04-03T11:53:36.073Z,5.8380
2023-04-03T11:54:44.290Z,5.6671
2023-04-03T11:55:38.403Z,5.6604
2023-04-03T11:56:40.544Z,5.6711
2023-04-03T11:57:42.386Z,5.5407
2023-04-03T11:58:44.238Z,5.6303
2023-04-03T11:59:46.065Z,5.6855
2023-04-03T12:00:47.930Z,5.6404
2023-04-03T12:01:49.826Z,5.6398
2023-04-03T12:02:54.676Z,5.6099
2023-04-03T12:03:52.215Z,5.6855
2023-04-03T12:04:54.052Z,5.6675
2023-04-03T12:05:55.938Z,5.7726
2023-04-03T12:06:57.802Z,5.8551
2023-04-03T12:07:59.634Z,5.8909
2023-04-03T12:09:01.448Z,5.9304
2023-04-03T12:10:03.266Z,6.0406
2023-04-03T12:11:05.116Z,6.1132
2023-04-03T12:12:06.972Z,6.1451
2023-04-03T12:13:08.880Z,6.1818
2023-04-03T12:14:10.681Z,6.1964
2023-04-03T12:15:12.511Z,6.1840
2023-04-03T12:16:14.376Z,6.2361
2023-04-03T12:17:16.241Z,6.1081
2023-04-03T12:18:18.064Z,6.0333
2023-04-03T12:19:22.252Z,6.0062
2023-04-03T12:20:21.200Z,5.9495
2023-04-03T12:21:23.100Z,5.8957
2023-04-03T12:22:24.969Z,5.8517
2023-04-03T12:23:26.799Z,5.8222
2023-04-03T12:24:28.641Z,5.8563
2023-04-03T12:25:30.479Z,5.9116
2023-04-03T12:26:38.397Z,5.9315
2023-04-03T12:27:32.654Z,5.8838
2023-04-03T12:28:34.492Z,6.0233
2023-04-03T12:29:36.600Z,6.0714
2023-04-03T12:30:36.823Z,6.0239
2023-04-03T12:31:38.651Z,6.0734
2023-04-03T12:32:40.540Z,6.0439
2023-04-03T12:33:42.394Z,6.2227
2023-04-03T12:34:44.216Z,6.1305
2023-04-03T12:35:46.015Z,6.1441
2023-04-03T12:36:47.866Z,6.1999
2023-04-03T12:37:49.780Z,6.4327
2023-04-03T12:38:51.584Z,6.4149
2023-04-03T12:39:53.427Z,6.5019
2023-04-03T12:40:55.357Z,6.7011
2023-04-03T12:41:57.202Z,6.6771
2023-04-03T12:42:59.045Z,6.7054
2023-04-03T12:44:00.854Z,6.5386
2023-04-03T12:45:02.720Z,6.4000
2023-04-03T12:46:04.688Z,6.4898
2023-04-03T12:47:06.638Z,6.5905
2023-04-03T12:48:08.460Z,6.6250
2023-04-03T12:49:10.257Z,6.4400
2023-04-03T12:50:12.073Z,6.4093